createdAt,value
2016-07-21T00:00:16.497Z,0
2016-07-21T00:01:16.447Z,0
2016-07-21T00:02:18.132Z,0
2016-07-21T00:03:16.561Z,0
2016-07-21T00:04:16.340Z,0
2016-07-21T00:05:16.315Z,0
2016-07-21T00:06:17.154Z,0
2016-07-21T00:07:16.283Z,0
2016-07-21T00:08:16.486Z,0
2016-07-21T00:09:16.456Z,0
2016-07-21T00:10:16.458Z,0
2016-07-21T00:11:16.364Z,0
2016-07-21T00:12:16.308Z,0
2016-07-21T00:13:17.233Z,0
2016-07-21T00:14:19.385Z,0
2016-07-21T00:15:16.422Z,0
2016-07-21T00:16:16.378Z,0
2016-07-21T00:17:17.553Z,0
2016-07-21T00:18:16.429Z,0
2016-07-21T00:19:16.325Z,0
2016-07-21T00:20:16.290Z,0
2016-07-21T00:21:16.500Z,0
2016-07-21T00:22:17.588Z,0
2016-07-21T00:23:16.720Z,0
2016-07-21T00:24:17.488Z,0
2016-07-21T00:25:16.430Z,0
2016-07-21T00:26:16.297Z,0
2016-07-21T00:27:16.271Z,0
2016-07-21T00:28:16.439Z,0
2016-07-21T00:29:16.260Z,0
2016-07-21T00:30:16.246Z,0
2016-07-21T00:31:16.257Z,0
2016-07-21T00:32:16.360Z,0
2016-07-21T00:33:16.421Z,0
2016-07-21T00:34:16.393Z,0
2016-07-21T00:35:17.474Z,0
2016-07-21T00:36:18.556Z,0
2016-07-21T00:37:16.278Z,0
2016-07-21T00:38:17.649Z,0
2016-07-21T00:39:16.392Z,0
2016-07-21T00:40:16.400Z,0
2016-07-21T00:41:16.382Z,0
2016-07-21T00:42:16.213Z,0
2016-07-21T00:43:16.260Z,0
2016-07-21T00:44:17.471Z,0
2016-07-21T00:45:16.270Z,0
2016-07-21T00:46:16.274Z,0
2016-07-21T00:47:16.636Z,0
2016-07-21T00:48:16.243Z,0
2016-07-21T00:49:16.230Z,0
2016-07-21T00:50:16.263Z,0
2016-07-21T00:51:16.365Z,0
2016-07-21T00:52:16.256Z,0
2016-07-21T00:53:18.615Z,0
2016-07-21T00:54:16.203Z,0
2016-07-21T00:55:16.208Z,0
2016-07-21T00:56:16.253Z,0
2016-07-21T00:57:17.954Z,0
2016-07-21T00:58:17.353Z,0
2016-07-21T00:59:16.305Z,0
2016-07-21T01:00:16.224Z,0
2016-07-21T01:01:16.226Z,0
2016-07-21T01:02:16.295Z,0
2016-07-21T01:03:16.233Z,0
2016-07-21T01:04:16.364Z,0
2016-07-21T01:05:16.210Z,0
2016-07-21T01:06:16.225Z,0
2016-07-21T01:07:16.225Z,0
2016-07-21T01:08:16.269Z,0
2016-07-21T01:09:16.224Z,0
2016-07-21T01:10:16.208Z,0
2016-07-21T01:11:16.254Z,0
2016-07-21T01:12:16.250Z,0
2016-07-21T01:13:16.353Z,0
2016-07-21T01:14:17.562Z,0
2016-07-21T01:15:17.518Z,0
2016-07-21T01:16:16.307Z,0
2016-07-21T01:17:16.199Z,0
2016-07-21T01:18:16.355Z,0
2016-07-21T01:19:19.688Z,0
2016-07-21T01:20:17.089Z,0
2016-07-21T01:21:16.221Z,0
2016-07-21T01:22:16.393Z,0
2016-07-21T01:23:17.472Z,0
2016-07-21T01:24:16.320Z,0
2016-07-21T01:25:16.412Z,0
2016-07-21T01:26:16.178Z,0
2016-07-21T01:27:16.183Z,0
2016-07-21T01:28:16.312Z,0
2016-07-21T01:29:16.869Z,0
2016-07-21T01:30:16.162Z,0
2016-07-21T01:31:16.207Z,0
2016-07-21T01:32:16.264Z,0
2016-07-21T01:33:16.408Z,0
2016-07-21T01:34:16.325Z,0
2016-07-21T01:35:16.237Z,0
2016-07-21T01:36:16.205Z,0
2016-07-21T01:37:16.378Z,0
2016-07-21T01:38:16.313Z,0
2016-07-21T01:39:16.150Z,0
2016-07-21T01:40:18.168Z,0
2016-07-21T01:41:16.317Z,0
2016-07-21T01:42:16.303Z,0
2016-07-21T01:43:16.335Z,0
2016-07-21T01:44:16.334Z,0
2016-07-21T01:45:18.167Z,0
2016-07-21T01:46:16.241Z,0
2016-07-21T01:47:16.235Z,0
2016-07-21T01:48:16.771Z,0
2016-07-21T01:49:16.223Z,0
2016-07-21T01:50:17.414Z,0
2016-07-21T01:51:16.423Z,0
2016-07-21T01:52:16.293Z,0
2016-07-21T01:53:17.103Z,0
2016-07-21T01:54:16.257Z,0
2016-07-21T01:55:16.262Z,0
2016-07-21T01:56:16.323Z,0
2016-07-21T01:57:16.165Z,0
2016-07-21T01:58:17.061Z,0
2016-07-21T01:59:17.070Z,0
2016-07-21T02:00:16.333Z,0
2016-07-21T02:01:16.212Z,0
2016-07-21T02:02:16.223Z,0
2016-07-21T02:03:16.107Z,0
2016-07-21T02:04:16.121Z,0
2016-07-21T02:05:16.262Z,0
2016-07-21T02:06:16.123Z,0
2016-07-21T02:07:16.293Z,0
2016-07-21T02:08:16.159Z,0
2016-07-21T02:09:16.159Z,0
2016-07-21T02:10:16.162Z,0
2016-07-21T02:11:16.163Z,0
2016-07-21T02:12:16.180Z,0
2016-07-21T02:13:16.169Z,0
2016-07-21T02:14:17.379Z,0
2016-07-21T02:15:17.225Z,0
2016-07-21T02:16:16.282Z,0
2016-07-21T02:17:17.405Z,0
2016-07-21T02:18:16.109Z,0
2016-07-21T02:19:16.136Z,0
2016-07-21T02:20:16.136Z,0
2016-07-21T02:21:16.199Z,0
2016-07-21T02:22:16.145Z,0
2016-07-21T02:23:16.887Z,0
2016-07-21T02:24:16.149Z,0
2016-07-21T02:25:16.173Z,0
2016-07-21T02:26:16.206Z,0
2016-07-21T02:27:16.363Z,0
2016-07-21T02:28:16.076Z,0
2016-07-21T02:29:16.175Z,0
2016-07-21T02:30:16.180Z,0
2016-07-21T02:31:16.118Z,0
2016-07-21T02:32:16.109Z,0
2016-07-21T02:33:16.110Z,0
2016-07-21T02:34:16.118Z,0
2016-07-21T02:35:16.283Z,0
2016-07-21T02:36:16.253Z,0
2016-07-21T02:37:18.467Z,0
2016-07-21T02:38:16.332Z,0
2016-07-21T02:39:16.286Z,0
2016-07-21T02:40:31.028Z,0
2016-07-21T02:41:16.171Z,0
2016-07-21T02:42:17.371Z,0
2016-07-21T02:43:16.201Z,0
2016-07-21T02:44:17.403Z,0
2016-07-21T02:45:17.422Z,0
2016-07-21T02:46:16.195Z,0
2016-07-21T02:47:17.409Z,0
2016-07-21T02:48:16.372Z,0
2016-07-21T02:49:17.319Z,0
2016-07-21T02:50:16.156Z,0
2016-07-21T02:51:16.167Z,0
2016-07-21T02:52:16.106Z,0
2016-07-21T02:53:16.793Z,0
2016-07-21T02:54:16.077Z,0
2016-07-21T02:55:16.083Z,0
2016-07-21T02:56:16.240Z,0
2016-07-21T02:57:16.610Z,0
2016-07-21T02:58:17.706Z,0
2016-07-21T02:59:16.288Z,0
2016-07-21T03:00:16.885Z,0
2016-07-21T03:01:17.025Z,0
2016-07-21T03:02:16.123Z,0
2016-07-21T03:03:16.119Z,0
2016-07-21T03:04:16.098Z,0
2016-07-21T03:05:16.061Z,0
2016-07-21T03:06:16.193Z,0
2016-07-21T03:07:17.363Z,0
2016-07-21T03:08:16.456Z,0
2016-07-21T03:09:16.053Z,0
2016-07-21T03:10:16.071Z,0
2016-07-21T03:11:16.268Z,0
2016-07-21T03:12:17.225Z,0
2016-07-21T03:13:16.085Z,0
2016-07-21T03:14:16.095Z,5
2016-07-21T03:15:16.044Z,5
2016-07-21T03:16:16.103Z,5
2016-07-21T03:17:16.088Z,5
2016-07-21T03:18:16.438Z,5
2016-07-21T03:19:17.365Z,5
2016-07-21T03:20:16.398Z,5
2016-07-21T03:21:16.470Z,5
2016-07-21T03:22:16.166Z,5
2016-07-21T03:23:16.078Z,5
2016-07-21T03:24:16.089Z,5
2016-07-21T03:25:16.084Z,5
2016-07-21T03:26:16.125Z,5
2016-07-21T03:27:16.119Z,5
2016-07-21T03:28:16.103Z,5
2016-07-21T03:29:16.123Z,5
2016-07-21T03:30:16.078Z,5
2016-07-21T03:31:16.051Z,5
2016-07-21T03:32:16.038Z,5
2016-07-21T03:33:16.054Z,10
2016-07-21T03:34:16.060Z,10
2016-07-21T03:35:17.363Z,10
2016-07-21T03:36:17.611Z,10
2016-07-21T03:37:16.254Z,10
2016-07-21T03:38:16.076Z,10
2016-07-21T03:39:16.100Z,10
2016-07-21T03:40:16.014Z,10
2016-07-21T03:41:16.023Z,10
2016-07-21T03:42:16.186Z,15
2016-07-21T03:43:16.088Z,15
2016-07-21T03:44:16.003Z,15
2016-07-21T03:45:16.028Z,15
2016-07-21T03:46:16.112Z,20
2016-07-21T03:47:17.124Z,20
2016-07-21T03:48:16.033Z,20
2016-07-21T03:49:16.069Z,20
2016-07-21T03:50:16.180Z,20
2016-07-21T03:51:17.307Z,25
2016-07-21T03:52:16.976Z,25
2016-07-21T03:53:18.099Z,30
2016-07-21T03:54:16.588Z,30
2016-07-21T03:55:16.125Z,35
2016-07-21T03:56:16.427Z,40
2016-07-21T03:57:17.139Z,45
2016-07-21T03:58:16.199Z,50
2016-07-21T03:59:16.033Z,50
2016-07-21T04:00:16.034Z,55
2016-07-21T04:01:16.048Z,55
2016-07-21T04:02:16.206Z,55
2016-07-21T04:03:16.073Z,60
2016-07-21T04:04:16.156Z,60
2016-07-21T04:05:16.121Z,70
2016-07-21T04:06:16.027Z,75
2016-07-21T04:07:16.040Z,85
2016-07-21T04:08:15.993Z,90
2016-07-21T04:09:16.026Z,90
2016-07-21T04:10:16.141Z,95
2016-07-21T04:11:16.127Z,95
2016-07-21T04:12:16.412Z,95
2016-07-21T04:13:17.330Z,100
2016-07-21T04:14:17.371Z,105
2016-07-21T04:15:17.349Z,100
2016-07-21T04:16:16.760Z,105
2016-07-21T04:17:16.006Z,105
2016-07-21T04:18:16.952Z,105
2016-07-21T04:19:16.104Z,105
2016-07-21T04:20:16.000Z,100
2016-07-21T04:21:16.018Z,95
2016-07-21T04:22:16.212Z,90
2016-07-21T04:23:16.011Z,95
2016-07-21T04:24:16.020Z,100
2016-07-21T04:25:16.017Z,100
2016-07-21T04:26:16.062Z,105
2016-07-21T04:27:16.487Z,110
2016-07-21T04:28:16.095Z,120
2016-07-21T04:29:16.145Z,120
2016-07-21T04:30:17.095Z,130
2016-07-21T04:31:16.828Z,135
2016-07-21T04:32:16.351Z,145
2016-07-21T04:33:16.049Z,150
2016-07-21T04:34:16.056Z,160
2016-07-21T04:35:16.952Z,160
2016-07-21T04:36:16.981Z,160
2016-07-21T04:37:16.189Z,160
2016-07-21T04:38:16.237Z,160
2016-07-21T04:39:16.101Z,160
2016-07-21T04:40:16.131Z,155
2016-07-21T04:41:16.095Z,150
2016-07-21T04:42:16.169Z,145
2016-07-21T04:43:16.125Z,145
2016-07-21T04:44:16.060Z,140
2016-07-21T04:45:15.914Z,135
2016-07-21T04:46:15.921Z,130
2016-07-21T04:47:15.912Z,130
2016-07-21T04:48:15.943Z,125
2016-07-21T04:49:15.954Z,115
2016-07-21T04:50:16.648Z,110
2016-07-21T04:51:15.969Z,100
2016-07-21T04:52:15.958Z,95
2016-07-21T04:53:15.996Z,90
2016-07-21T04:54:15.976Z,85
2016-07-21T04:55:15.998Z,85
2016-07-21T04:56:15.992Z,80
2016-07-21T04:57:15.998Z,80
2016-07-21T04:58:15.895Z,80
2016-07-21T04:59:15.916Z,80
2016-07-21T05:00:15.929Z,80
2016-07-21T05:01:15.935Z,80
2016-07-21T05:02:15.923Z,80
2016-07-21T05:03:15.934Z,80
2016-07-21T05:04:15.945Z,75
2016-07-21T05:05:16.006Z,75
2016-07-21T05:06:16.011Z,70
2016-07-21T05:07:16.015Z,60
2016-07-21T05:08:15.967Z,55
2016-07-21T05:09:15.971Z,55
2016-07-21T05:10:15.903Z,50
2016-07-21T05:11:15.893Z,50
2016-07-21T05:12:15.901Z,50
2016-07-21T05:13:15.918Z,50
2016-07-21T05:14:16.007Z,50
2016-07-21T05:15:15.928Z,50
2016-07-21T05:16:15.927Z,50
2016-07-21T05:17:15.959Z,50
2016-07-21T05:18:15.940Z,50
2016-07-21T05:19:15.950Z,45
2016-07-21T05:20:15.950Z,45
2016-07-21T05:21:15.971Z,40
2016-07-21T05:22:15.995Z,40
2016-07-21T05:23:15.898Z,40
2016-07-21T05:24:15.905Z,40
2016-07-21T05:25:15.895Z,45
2016-07-21T05:26:15.922Z,45
2016-07-21T05:27:15.910Z,45
2016-07-21T05:28:15.902Z,45
2016-07-21T05:29:15.918Z,45
2016-07-21T05:30:15.947Z,40
2016-07-21T05:31:15.963Z,40
2016-07-21T05:32:15.967Z,45
2016-07-21T05:33:15.958Z,45
2016-07-21T05:34:15.957Z,50
2016-07-21T05:35:15.912Z,50
2016-07-21T05:36:15.925Z,50
2016-07-21T05:37:15.884Z,50
2016-07-21T05:38:16.621Z,45
2016-07-21T05:39:15.901Z,45
2016-07-21T05:40:16.616Z,45
2016-07-21T05:41:15.927Z,45
2016-07-21T05:42:15.903Z,45
2016-07-21T05:43:15.915Z,45
2016-07-21T05:44:15.931Z,50
2016-07-21T05:45:15.934Z,45
2016-07-21T05:46:15.966Z,45
2016-07-21T05:47:15.967Z,45
2016-07-21T05:48:15.890Z,45
2016-07-21T05:49:15.879Z,45
2016-07-21T05:50:15.874Z,45
2016-07-21T05:51:15.892Z,50
2016-07-21T05:52:15.898Z,50
2016-07-21T05:53:15.904Z,50
2016-07-21T05:54:15.909Z,50
2016-07-21T05:55:15.904Z,50
2016-07-21T05:56:15.932Z,50
2016-07-21T05:57:15.933Z,50
2016-07-21T05:58:15.961Z,45
2016-07-21T05:59:15.950Z,45
2016-07-21T06:00:15.877Z,40
2016-07-21T06:01:15.869Z,45
2016-07-21T06:02:15.890Z,45
2016-07-21T06:03:15.872Z,45
2016-07-21T06:04:15.887Z,50
2016-07-21T06:05:15.889Z,50
2016-07-21T06:06:15.903Z,55
2016-07-21T06:07:15.902Z,55
2016-07-21T06:08:15.906Z,60
2016-07-21T06:09:15.916Z,60
2016-07-21T06:10:15.931Z,60
2016-07-21T06:11:15.931Z,60
2016-07-21T06:12:15.951Z,60
2016-07-21T06:13:15.858Z,60
2016-07-21T06:14:16.558Z,60
2016-07-21T06:15:15.869Z,60
2016-07-21T06:16:15.875Z,60
2016-07-21T06:17:15.876Z,60
2016-07-21T06:18:15.920Z,60
2016-07-21T06:19:15.883Z,60
2016-07-21T06:20:15.901Z,60
2016-07-21T06:21:16.627Z,60
2016-07-21T06:22:15.905Z,60
2016-07-21T06:23:15.924Z,60
2016-07-21T06:24:15.920Z,60
2016-07-21T06:25:15.877Z,60
2016-07-21T06:26:15.884Z,60
2016-07-21T06:27:15.901Z,60
2016-07-21T06:28:15.857Z,60
2016-07-21T06:29:15.851Z,65
2016-07-21T06:30:15.874Z,65
2016-07-21T06:31:15.881Z,65
2016-07-21T06:32:16.642Z,65
2016-07-21T06:33:15.881Z,60
2016-07-21T06:34:15.887Z,60
2016-07-21T06:35:15.916Z,55
2016-07-21T06:36:16.628Z,50
2016-07-21T06:37:15.922Z,45
2016-07-21T06:38:15.830Z,50
2016-07-21T06:39:15.840Z,50
2016-07-21T06:40:15.853Z,50
2016-07-21T06:41:15.881Z,55
2016-07-21T06:42:15.876Z,55
2016-07-21T06:43:15.880Z,60
2016-07-21T06:44:15.859Z,60
2016-07-21T06:45:15.875Z,65
2016-07-21T06:46:15.875Z,65
2016-07-21T06:47:15.904Z,70
2016-07-21T06:48:15.913Z,75
2016-07-21T06:49:15.891Z,75
2016-07-21T06:50:15.818Z,80
2016-07-21T06:51:15.823Z,80
2016-07-21T06:52:15.815Z,85
2016-07-21T06:53:16.542Z,85
2016-07-21T06:54:15.845Z,85
2016-07-21T06:55:15.860Z,85
2016-07-21T06:56:15.859Z,85
2016-07-21T06:57:15.869Z,85
2016-07-21T06:58:15.876Z,85
2016-07-21T06:59:15.906Z,90
2016-07-21T07:00:15.897Z,90
2016-07-21T07:01:15.932Z,95
2016-07-21T07:02:15.904Z,95
2016-07-21T07:03:15.807Z,95
2016-07-21T07:04:15.800Z,100
2016-07-21T07:05:15.819Z,100
2016-07-21T07:06:15.839Z,105
2016-07-21T07:07:15.822Z,105
2016-07-21T07:08:15.839Z,105
2016-07-21T07:09:15.853Z,105
2016-07-21T07:10:15.878Z,105
2016-07-21T07:11:15.868Z,100
2016-07-21T07:12:15.871Z,100
2016-07-21T07:13:15.872Z,105
2016-07-21T07:14:15.871Z,105
2016-07-21T07:15:15.795Z,105
2016-07-21T07:16:15.793Z,110
2016-07-21T07:17:15.804Z,115
2016-07-21T07:18:15.806Z,120
2016-07-21T07:19:15.813Z,120
2016-07-21T07:20:15.831Z,125
2016-07-21T07:21:16.552Z,125
2016-07-21T07:22:15.822Z,130
2016-07-21T07:23:15.849Z,130
2016-07-21T07:24:15.867Z,130
2016-07-21T07:25:15.871Z,130
2016-07-21T07:26:15.875Z,130
2016-07-21T07:27:16.105Z,135
2016-07-21T07:28:16.484Z,135
2016-07-21T07:29:15.775Z,135
2016-07-21T07:30:15.802Z,135
2016-07-21T07:31:15.792Z,130
2016-07-21T07:32:15.816Z,130
2016-07-21T07:33:15.826Z,130
2016-07-21T07:34:15.825Z,130
2016-07-21T07:35:15.872Z,130
2016-07-21T07:36:16.553Z,130
2016-07-21T07:37:15.840Z,130
2016-07-21T07:38:15.842Z,135
2016-07-21T07:39:15.854Z,135
2016-07-21T07:40:15.807Z,135
2016-07-21T07:41:16.517Z,135
2016-07-21T07:42:15.787Z,140
2016-07-21T07:43:16.504Z,140
2016-07-21T07:44:15.840Z,145
2016-07-21T07:45:15.840Z,145
2016-07-21T07:46:15.832Z,145
2016-07-21T07:47:15.822Z,145
2016-07-21T07:48:15.812Z,145
2016-07-21T07:49:15.820Z,145
2016-07-21T07:50:15.831Z,145
2016-07-21T07:51:15.833Z,145
2016-07-21T07:52:15.826Z,145
2016-07-21T07:53:15.806Z,145
2016-07-21T07:54:15.759Z,145
2016-07-21T07:55:15.762Z,145
2016-07-21T07:56:15.783Z,150
2016-07-21T07:57:15.790Z,145
2016-07-21T07:58:15.793Z,145
2016-07-21T07:59:15.795Z,140
2016-07-21T08:00:15.806Z,140
2016-07-21T08:01:15.858Z,140
2016-07-21T08:02:16.132Z,140
2016-07-21T08:03:15.851Z,140
2016-07-21T08:04:15.844Z,140
2016-07-21T08:05:15.752Z,135
2016-07-21T08:06:15.736Z,135
2016-07-21T08:07:15.743Z,135
2016-07-21T08:08:15.762Z,140
2016-07-21T08:09:15.766Z,145
2016-07-21T08:10:15.783Z,150
2016-07-21T08:11:15.804Z,160
2016-07-21T08:12:15.803Z,165
2016-07-21T08:13:15.800Z,170
2016-07-21T08:14:15.817Z,180
2016-07-21T08:15:15.812Z,180
2016-07-21T08:16:15.857Z,185
2016-07-21T08:17:15.842Z,190
2016-07-21T08:18:15.743Z,195
2016-07-21T08:19:15.733Z,200
2016-07-21T08:20:15.752Z,210
2016-07-21T08:21:15.755Z,215
2016-07-21T08:22:15.769Z,225
2016-07-21T08:23:15.756Z,230
2016-07-21T08:24:15.771Z,240
2016-07-21T08:25:15.776Z,250
2016-07-21T08:26:15.787Z,250
2016-07-21T08:27:16.056Z,250
2016-07-21T08:28:15.798Z,260
2016-07-21T08:29:15.758Z,255
2016-07-21T08:30:15.713Z,255
2016-07-21T08:31:16.426Z,255
2016-07-21T08:32:15.774Z,260
2016-07-21T08:33:15.781Z,255
2016-07-21T08:34:15.746Z,255
2016-07-21T08:35:15.761Z,255
2016-07-21T08:36:15.796Z,250
2016-07-21T08:37:15.763Z,245
2016-07-21T08:38:15.778Z,245
2016-07-21T08:39:15.794Z,240
2016-07-21T08:40:15.792Z,240
2016-07-21T08:41:15.847Z,235
2016-07-21T08:42:15.863Z,235
2016-07-21T08:43:15.699Z,235
2016-07-21T08:44:15.764Z,235
2016-07-21T08:45:15.748Z,235
2016-07-21T08:46:15.774Z,235
2016-07-21T08:47:15.780Z,240
2016-07-21T08:48:15.811Z,240
2016-07-21T08:49:15.779Z,235
2016-07-21T08:50:15.759Z,235
2016-07-21T08:51:15.790Z,235
2016-07-21T08:52:15.763Z,230
2016-07-21T08:53:15.778Z,230
2016-07-21T08:54:15.798Z,235
2016-07-21T08:55:15.695Z,235
2016-07-21T08:56:15.687Z,240
2016-07-21T08:57:15.702Z,250
2016-07-21T08:58:15.703Z,255
2016-07-21T08:59:15.776Z,260
2016-07-21T09:00:15.753Z,265
2016-07-21T09:01:15.735Z,275
2016-07-21T09:02:15.741Z,280
2016-07-21T09:03:15.751Z,285
2016-07-21T09:04:15.764Z,285
2016-07-21T09:05:15.764Z,295
2016-07-21T09:06:16.484Z,300
2016-07-21T09:07:15.824Z,295
2016-07-21T09:08:15.707Z,300
2016-07-21T09:09:15.845Z,300
2016-07-21T09:10:15.708Z,305
2016-07-21T09:11:15.703Z,310
2016-07-21T09:12:15.714Z,310
2016-07-21T09:13:15.743Z,310
2016-07-21T09:14:15.733Z,315
2016-07-21T09:15:15.762Z,315
2016-07-21T09:16:15.795Z,315
2016-07-21T09:17:15.749Z,315
2016-07-21T09:18:15.778Z,315
2016-07-21T09:19:16.474Z,315
2016-07-21T09:20:15.674Z,315
2016-07-21T09:21:15.676Z,315
2016-07-21T09:22:15.687Z,315
2016-07-21T09:23:15.752Z,315
2016-07-21T09:24:15.808Z,310
2016-07-21T09:25:15.731Z,305
2016-07-21T09:26:15.724Z,300
2016-07-21T09:27:15.737Z,290
2016-07-21T09:28:15.748Z,280
2016-07-21T09:29:15.737Z,270
2016-07-21T09:30:15.765Z,265
2016-07-21T09:31:15.769Z,260
2016-07-21T09:32:15.772Z,260
2016-07-21T09:33:15.688Z,260
2016-07-21T09:34:15.682Z,260
2016-07-21T09:35:15.693Z,265
2016-07-21T09:36:15.693Z,260
2016-07-21T09:37:15.710Z,255
2016-07-21T09:38:15.713Z,250
2016-07-21T09:39:15.702Z,240
2016-07-21T09:40:15.761Z,235
2016-07-21T09:41:16.945Z,225
2016-07-21T09:42:15.782Z,220
2016-07-21T09:43:15.780Z,220
2016-07-21T09:44:15.753Z,220
2016-07-21T09:45:16.444Z,225
2016-07-21T09:46:16.403Z,230
2016-07-21T09:47:15.681Z,235
2016-07-21T09:48:15.692Z,240
2016-07-21T09:49:15.699Z,250
2016-07-21T09:50:15.673Z,255
2016-07-21T09:51:15.710Z,255
2016-07-21T09:52:15.712Z,260
2016-07-21T09:53:15.719Z,260
2016-07-21T09:54:15.729Z,260
2016-07-21T09:55:15.733Z,255
2016-07-21T09:56:15.738Z,255
2016-07-21T09:57:15.731Z,255
2016-07-21T09:58:15.681Z,260
2016-07-21T09:59:16.383Z,250
2016-07-21T10:00:15.676Z,250
2016-07-21T10:01:15.682Z,250
2016-07-21T10:02:15.679Z,250
2016-07-21T10:03:15.684Z,250
2016-07-21T10:04:15.703Z,255
2016-07-21T10:05:15.705Z,260
2016-07-21T10:06:15.760Z,265
2016-07-21T10:07:15.695Z,270
2016-07-21T10:08:15.713Z,275
2016-07-21T10:09:15.731Z,275
2016-07-21T10:10:15.737Z,280
2016-07-21T10:11:15.680Z,275
2016-07-21T10:12:15.680Z,285
2016-07-21T10:13:15.681Z,295
2016-07-21T10:14:15.707Z,300
2016-07-21T10:15:15.688Z,300
2016-07-21T10:16:15.680Z,300
2016-07-21T10:17:15.683Z,275
2016-07-21T10:18:15.693Z,260
2016-07-21T10:19:15.730Z,260
2016-07-21T10:20:15.716Z,265
2016-07-21T10:21:15.728Z,285
2016-07-21T10:22:15.709Z,300
2016-07-21T10:23:15.680Z,315
2016-07-21T10:24:15.671Z,330
2016-07-21T10:25:15.743Z,330
2016-07-21T10:26:15.715Z,360
2016-07-21T10:27:15.686Z,375
2016-07-21T10:28:15.685Z,355
2016-07-21T10:29:15.681Z,335
2016-07-21T10:30:15.687Z,325
2016-07-21T10:31:15.689Z,305
2016-07-21T10:32:15.718Z,275
2016-07-21T10:33:15.707Z,250
2016-07-21T10:34:15.697Z,235
2016-07-21T10:35:15.723Z,225
2016-07-21T10:36:15.694Z,215
2016-07-21T10:37:15.689Z,215
2016-07-21T10:38:15.688Z,215
2016-07-21T10:39:15.685Z,210
2016-07-21T10:40:15.686Z,210
2016-07-21T10:41:15.704Z,210
2016-07-21T10:42:15.677Z,215
2016-07-21T10:43:15.695Z,220
2016-07-21T10:44:15.691Z,220
2016-07-21T10:45:15.688Z,220
2016-07-21T10:46:15.700Z,220
2016-07-21T10:47:15.746Z,225
2016-07-21T10:48:15.798Z,225
2016-07-21T10:49:15.698Z,225
2016-07-21T10:50:15.704Z,225
2016-07-21T10:51:15.696Z,220
2016-07-21T10:52:15.688Z,215
2016-07-21T10:53:16.392Z,210
2016-07-21T10:54:16.954Z,200
2016-07-21T10:55:15.745Z,195
2016-07-21T10:56:15.699Z,190
2016-07-21T10:57:15.705Z,180
2016-07-21T10:58:15.691Z,175
2016-07-21T10:59:15.717Z,165
2016-07-21T11:00:15.699Z,155
2016-07-21T11:01:15.694Z,145
2016-07-21T11:02:15.692Z,135
2016-07-21T11:03:15.698Z,135
2016-07-21T11:04:15.698Z,130
2016-07-21T11:05:15.691Z,130
2016-07-21T11:06:16.397Z,135
2016-07-21T11:07:15.690Z,140
2016-07-21T11:08:15.690Z,140
2016-07-21T11:09:15.730Z,145
2016-07-21T11:10:15.723Z,155
2016-07-21T11:11:15.708Z,160
2016-07-21T11:12:15.697Z,170
2016-07-21T11:13:15.693Z,180
2016-07-21T11:14:15.707Z,190
2016-07-21T11:15:15.691Z,190
2016-07-21T11:16:15.691Z,195
2016-07-21T11:17:15.702Z,195
2016-07-21T11:18:15.703Z,200
2016-07-21T11:19:15.704Z,200
2016-07-21T11:20:15.698Z,205
2016-07-21T11:21:15.684Z,205
2016-07-21T11:22:15.696Z,210
2016-07-21T11:23:15.707Z,220
2016-07-21T11:24:15.706Z,225
2016-07-21T11:25:15.701Z,230
2016-07-21T11:26:15.698Z,230
2016-07-21T11:27:15.718Z,230
2016-07-21T11:28:15.694Z,225
2016-07-21T11:29:16.556Z,220
2016-07-21T11:30:15.694Z,215
2016-07-21T11:31:15.695Z,210
2016-07-21T11:32:15.701Z,205
2016-07-21T11:33:15.747Z,200
2016-07-21T11:34:15.709Z,200
2016-07-21T11:35:17.116Z,195
2016-07-21T11:36:15.690Z,200
2016-07-21T11:37:15.692Z,195
2016-07-21T11:38:15.696Z,195
2016-07-21T11:39:15.698Z,195
2016-07-21T11:40:15.738Z,195
2016-07-21T11:41:15.724Z,200
2016-07-21T11:42:15.701Z,205
2016-07-21T11:43:15.713Z,200
2016-07-21T11:44:15.711Z,185
2016-07-21T11:45:15.692Z,175
2016-07-21T11:46:15.705Z,160
2016-07-21T11:47:15.787Z,145
2016-07-21T11:48:15.713Z,135
2016-07-21T11:49:16.395Z,135
2016-07-21T11:50:15.691Z,145
2016-07-21T11:51:15.689Z,150
2016-07-21T11:52:15.697Z,150
2016-07-21T11:53:15.780Z,165
2016-07-21T11:54:15.744Z,180
2016-07-21T11:55:15.760Z,180
2016-07-21T11:56:15.728Z,180
2016-07-21T11:57:15.713Z,185
2016-07-21T11:58:15.692Z,195
2016-07-21T11:59:15.704Z,195
2016-07-21T12:00:15.729Z,200
2016-07-21T12:01:15.722Z,210
2016-07-21T12:02:15.706Z,220
2016-07-21T12:03:15.688Z,220
2016-07-21T12:04:15.684Z,225
2016-07-21T12:05:15.693Z,215
2016-07-21T12:06:15.708Z,220
2016-07-21T12:07:16.412Z,235
2016-07-21T12:08:15.684Z,240
2016-07-21T12:09:15.684Z,220
2016-07-21T12:10:17.115Z,200
2016-07-21T12:11:15.699Z,195
2016-07-21T12:12:15.692Z,200
2016-07-21T12:13:15.695Z,210
2016-07-21T12:14:15.705Z,230
2016-07-21T12:15:15.691Z,255
2016-07-21T12:16:15.702Z,265
2016-07-21T12:17:15.707Z,270
2016-07-21T12:18:15.689Z,265
2016-07-21T12:19:15.690Z,260
2016-07-21T12:20:15.687Z,255
2016-07-21T12:21:15.692Z,250
2016-07-21T12:22:15.700Z,245
2016-07-21T12:23:16.399Z,240
2016-07-21T12:24:15.698Z,225
2016-07-21T12:25:15.685Z,215
2016-07-21T12:26:15.693Z,200
2016-07-21T12:27:15.691Z,190
2016-07-21T12:28:15.692Z,185
2016-07-21T12:29:15.694Z,185
2016-07-21T12:30:15.700Z,180
2016-07-21T12:31:15.707Z,175
2016-07-21T12:32:15.676Z,170
2016-07-21T12:33:15.739Z,170
2016-07-21T12:34:15.777Z,175
2016-07-21T12:35:15.722Z,170
2016-07-21T12:36:15.699Z,165
2016-07-21T12:37:16.642Z,160
2016-07-21T12:38:15.702Z,150
2016-07-21T12:39:15.674Z,140
2016-07-21T12:40:15.702Z,130
2016-07-21T12:41:15.685Z,135
2016-07-21T12:42:15.719Z,135
2016-07-21T12:43:15.722Z,140
2016-07-21T12:44:15.692Z,145
2016-07-21T12:45:15.903Z,155
2016-07-21T12:46:16.506Z,160
2016-07-21T12:47:16.486Z,155
2016-07-21T12:48:15.702Z,150
2016-07-21T12:49:17.113Z,130
2016-07-21T12:50:15.707Z,110
2016-07-21T12:51:15.712Z,90
2016-07-21T12:52:16.497Z,80
2016-07-21T12:53:15.677Z,80
2016-07-21T12:54:15.683Z,85
2016-07-21T12:55:15.769Z,80
2016-07-21T12:56:15.723Z,70
2016-07-21T12:57:15.815Z,55
2016-07-21T12:58:15.724Z,45
2016-07-21T12:59:15.692Z,40
2016-07-21T13:00:15.670Z,40
2016-07-21T13:01:15.706Z,45
2016-07-21T13:02:15.672Z,50
2016-07-21T13:03:15.681Z,55
2016-07-21T13:04:15.726Z,60
2016-07-21T13:05:15.683Z,65
2016-07-21T13:06:15.671Z,75
2016-07-21T13:07:15.688Z,80
2016-07-21T13:08:15.690Z,85
2016-07-21T13:09:15.680Z,90
2016-07-21T13:10:15.684Z,85
2016-07-21T13:11:16.493Z,85
2016-07-21T13:12:15.684Z,90
2016-07-21T13:13:15.790Z,90
2016-07-21T13:14:15.713Z,85
2016-07-21T13:15:15.724Z,75
2016-07-21T13:16:15.721Z,70
2016-07-21T13:17:15.672Z,65
2016-07-21T13:18:15.662Z,60
2016-07-21T13:19:15.690Z,60
2016-07-21T13:20:15.697Z,60
2016-07-21T13:21:15.783Z,60
2016-07-21T13:22:15.688Z,50
2016-07-21T13:23:16.510Z,40
2016-07-21T13:24:15.672Z,40
2016-07-21T13:25:16.467Z,45
2016-07-21T13:26:16.481Z,55
2016-07-21T13:27:15.661Z,65
2016-07-21T13:28:15.654Z,75
2016-07-21T13:29:16.458Z,80
2016-07-21T13:30:15.664Z,90
2016-07-21T13:31:15.658Z,85
2016-07-21T13:32:15.653Z,75
2016-07-21T13:33:15.649Z,55
2016-07-21T13:34:15.665Z,40
2016-07-21T13:35:15.642Z,35
2016-07-21T13:36:16.476Z,35
2016-07-21T13:37:15.691Z,30
2016-07-21T13:38:15.673Z,30
2016-07-21T13:39:15.638Z,30
2016-07-21T13:40:15.635Z,35
2016-07-21T13:41:15.649Z,40
2016-07-21T13:42:15.624Z,50
2016-07-21T13:43:15.634Z,60
2016-07-21T13:44:15.629Z,75
2016-07-21T13:45:15.617Z,90
2016-07-21T13:46:15.648Z,115
2016-07-21T13:47:15.682Z,140
2016-07-21T13:48:16.445Z,170
2016-07-21T13:49:15.644Z,200
2016-07-21T13:50:15.612Z,220
2016-07-21T13:51:15.617Z,235
2016-07-21T13:52:15.625Z,250
2016-07-21T13:53:15.626Z,255
2016-07-21T13:54:15.622Z,255
2016-07-21T13:55:15.652Z,245
2016-07-21T13:56:15.623Z,225
2016-07-21T13:57:15.623Z,205
2016-07-21T13:58:15.606Z,180
2016-07-21T13:59:15.626Z,150
2016-07-21T14:00:15.671Z,135
2016-07-21T14:01:15.622Z,125
2016-07-21T14:02:15.601Z,115
2016-07-21T14:03:15.610Z,115
2016-07-21T14:04:15.626Z,110
2016-07-21T14:05:15.594Z,105
2016-07-21T14:06:15.596Z,100
2016-07-21T14:07:15.601Z,95
2016-07-21T14:08:15.606Z,100